Aviation Digital Data Service (ADDS)

Output produced by METARs form (0051 UTC 21 November 2017)
found at http://www.aviationweather.gov/adds/metars/
 
UBBB 210030Z 16005KT CAVOK 13/11 Q1008 R88/D NOSIG
TAF UBBB 202310Z 2100/2124 18012KT 9999 SCT030 BKN100 TX17/2112Z TN12/2102Z 
     TEMPO 2100/2106 14006KT 
     TEMPO 2106/2120 21018KT BKN020
       
UBBG 210030Z 23004KT 9999 BKN100 09/06 Q1010 R12/CLRD// NOSIG
TAF UBBG 202300Z 2100/2124 VRB02KT 9999 FEW030 SCT100 TX17/2112Z TN09/2102Z 
     PROB40 
     TEMPO 2101/2104 3000 BR BKN015 
     BECMG 2105/2107 26008KT
       
UBBL 210000Z 00000KT 9000 SCT100 10/09 Q1010 R33/CLRD// NOSIG RMK MT OBSC
TAF UBBL 202313Z 2100/2124 VRB04KT 6000 SCT100 TX17/2111Z TN08/2102Z 
     TEMPO 2100/2105 27006KT 3000 BR SCT010 
     BECMG 2105/2107 18008KT 9999 BKN020 BKN080 
     TEMPO 2107/2118 22008KT
       
UBBN 210030Z VRB02KT 9999 SCT050 BKN100 08/05 Q1012 R14R/CLRD// NOSIG RMK MT OP QFE684
TAF UBBN 202257Z 2100/2124 05008KT 9999 SCT050 BKN100 TX15/2112Z TN02/2103Z 
     TEMPO 2100/2112 16012KT 5000 -RASN BR OVC040
       
UBBQ 210000Z 00000KT 6000 NSC 03/02 Q1010 R34/CLRD// NOSIG RMK MT OBSC
TAF UBBQ 202312Z 2100/2124 26006KT 3000 BR SCT010 SCT100 TX17/2111Z TN03/2102Z 
     TEMPO 2100/2105 VRB04KT 0600 FG SCT006 
     BECMG 2105/2107 28012KT 9999 NSW BKN020 BKN080
       
UBBY 210000Z 00000KT 9000 FEW100 10/03 Q1013 R33/////// NOSIG RMK MT OP
TAF UBBY 202300Z 2100/2109 VRB02KT 6000 FEW050 SCT100 
     PROB40 
     TEMPO 2100/2104 3000 BR OVC012
       
UBBB 210030Z 16005KT CAVOK 13/11 Q1008 R88/D NOSIG
TAF UBBB 202310Z 2100/2124 18012KT 9999 SCT030 BKN100 TX17/2112Z TN12/2102Z 
     TEMPO 2100/2106 14006KT 
     TEMPO 2106/2120 21018KT BKN020
       
UBBG 210030Z 23004KT 9999 BKN100 09/06 Q1010 R12/CLRD// NOSIG
TAF UBBG 202300Z 2100/2124 VRB02KT 9999 FEW030 SCT100 TX17/2112Z TN09/2102Z 
     PROB40 
     TEMPO 2101/2104 3000 BR BKN015 
     BECMG 2105/2107 26008KT